createdAt,value
2022-10-22T00:02:07.548Z,100756.59
2022-10-22T00:04:37.886Z,100753.13
2022-10-22T00:07:06.887Z,100751.16
2022-10-22T00:09:35.865Z,100746.03
2022-10-22T00:12:05.249Z,100747.34
2022-10-22T00:14:34.218Z,100750.09
2022-10-22T00:17:04.216Z,100750.03
2022-10-22T00:19:37.211Z,100749.59
2022-10-22T00:22:06.260Z,100749.88
2022-10-22T00:24:36.287Z,100757.78
2022-10-22T00:27:05.615Z,100758.78
2022-10-22T00:29:34.595Z,100763.03
2022-10-22T00:32:03.787Z,100756.72
2022-10-22T00:34:32.764Z,100768.25
2022-10-22T00:37:03.158Z,100764.31
2022-10-22T00:39:32.310Z,100760.72
2022-10-22T00:42:01.498Z,100768.50
2022-10-22T00:45:04.790Z,100773.25
2022-10-22T00:47:36.301Z,100778.34
2022-10-22T00:50:08.697Z,100780.16
2022-10-22T00:52:39.809Z,100772.25
2022-10-22T00:55:09.712Z,100775.56
2022-10-22T00:57:38.910Z,100775.69
2022-10-22T01:00:09.427Z,100774.16
2022-10-22T01:02:38.628Z,100775.78
2022-10-22T01:05:08.896Z,100779.69
2022-10-22T01:07:44.293Z,100775.69
2022-10-22T01:10:27.593Z,100766.97
2022-10-22T01:13:08.219Z,100762.38
2022-10-22T01:15:44.522Z,100768.63
2022-10-22T01:18:22.251Z,100768.50
2022-10-22T01:21:08.478Z,100776.41
2022-10-22T01:24:10.771Z,100773.91
2022-10-22T01:27:04.348Z,100765.03
2022-10-22T01:29:39.605Z,100770.69
2022-10-22T01:32:13.678Z,100783.16
2022-10-22T01:34:45.557Z,100786.94
2022-10-22T01:37:16.607Z,100785.97
2022-10-22T01:39:48.608Z,100784.69
2022-10-22T01:42:17.714Z,100788.28
2022-10-22T01:44:48.778Z,100787.09
2022-10-22T01:47:27.006Z,100783.63
2022-10-22T01:50:32.236Z,100785.59
2022-10-22T01:53:18.662Z,100784.38
2022-10-22T01:55:58.186Z,100783.47
2022-10-22T01:58:39.219Z,100778.81
2022-10-22T02:01:19.570Z,100784.66
2022-10-22T02:03:57.298Z,100785.25
2022-10-22T02:06:28.211Z,100788.34
2022-10-22T02:08:58.798Z,100781.41
2022-10-22T02:11:28.432Z,100789.16
2022-10-22T02:14:01.153Z,100784.22
2022-10-22T02:16:35.992Z,100789.63
2022-10-22T02:19:11.430Z,100785.31
2022-10-22T02:21:40.513Z,100778.69
2022-10-22T02:24:09.787Z,100781.66
2022-10-22T02:26:46.806Z,100770.03
2022-10-22T02:29:21.460Z,100768.94
2022-10-22T02:31:57.006Z,100758.53
2022-10-22T02:34:29.291Z,100765.97
2022-10-22T02:37:00.424Z,100762.78
2022-10-22T02:39:30.660Z,100769.19
2022-10-22T02:41:59.791Z,100769.78
2022-10-22T02:44:28.726Z,100765.25
2022-10-22T02:47:00.102Z,100758.84
2022-10-22T02:49:29.263Z,100768.84
2022-10-22T02:51:58.553Z,100768.31
2022-10-22T02:54:27.579Z,100778.28
2022-10-22T02:56:56.551Z,100778.31
2022-10-22T02:59:25.717Z,100772.38
2022-10-22T03:01:54.774Z,100769.63
2022-10-22T03:04:25.384Z,100766.78
2022-10-22T03:06:54.356Z,100770.00
2022-10-22T03:09:24.908Z,100778.31
2022-10-22T03:11:54.438Z,100776.09
2022-10-22T03:14:24.033Z,100780.34
2022-10-22T03:16:53.028Z,100782.91
2022-10-22T03:19:21.970Z,100772.69
2022-10-22T03:21:57.388Z,100787.66
2022-10-22T03:24:30.881Z,100777.59
2022-10-22T03:27:00.015Z,100776.34
2022-10-22T03:29:30.196Z,100782.97
2022-10-22T03:31:59.207Z,100778.84
2022-10-22T03:34:28.160Z,100788.09
2022-10-22T03:37:00.500Z,100793.66
2022-10-22T03:39:33.126Z,100792.84
2022-10-22T03:42:03.064Z,100791.59
2022-10-22T03:44:32.795Z,100798.22
2022-10-22T03:47:02.802Z,100804.59
2022-10-22T03:49:31.982Z,100817.72
2022-10-22T03:52:07.498Z,100829.34
2022-10-22T03:57:07.929Z,100827.19
2022-10-22T03:59:37.458Z,100822.22
2022-10-22T04:02:07.046Z,100832.06
2022-10-22T04:04:36.257Z,100825.31
2022-10-22T04:07:07.216Z,100820.75
2022-10-22T04:09:36.566Z,100826.44
2022-10-22T04:12:06.479Z,100833.63
2022-10-22T04:14:35.831Z,100845.81
2022-10-22T04:17:05.136Z,100836.69
2022-10-22T04:19:34.097Z,100836.69
2022-10-22T04:22:03.295Z,100844.41
2022-10-22T04:24:33.837Z,100848.44
2022-10-22T04:27:02.803Z,100842.50
2022-10-22T04:29:31.754Z,100843.63
2022-10-22T04:32:00.789Z,100848.31
2022-10-22T04:34:30.495Z,100850.25
2022-10-22T04:36:59.574Z,100855.94
2022-10-22T04:39:28.586Z,100842.38
2022-10-22T04:41:58.903Z,100841.66
2022-10-22T04:44:27.920Z,100847.34
2022-10-22T04:46:57.139Z,100834.34
2022-10-22T04:49:26.321Z,100834.47
2022-10-22T04:51:55.332Z,100841.41
2022-10-22T04:54:26.759Z,100829.75
2022-10-22T04:57:00.726Z,100831.84
2022-10-22T04:59:29.672Z,100838.06
2022-10-22T05:01:58.722Z,100842.38
2022-10-22T05:04:27.717Z,100831.16
2022-10-22T05:06:57.166Z,100825.91
2022-10-22T05:09:26.233Z,100821.63
2022-10-22T05:11:55.401Z,100831.00
2022-10-22T05:14:27.305Z,100828.25
2022-10-22T05:16:56.817Z,100827.53
2022-10-22T05:19:28.076Z,100823.28
2022-10-22T05:21:58.781Z,100827.72
2022-10-22T05:24:28.875Z,100831.00
2022-10-22T05:27:00.400Z,100841.13
2022-10-22T05:29:30.954Z,100839.03
2022-10-22T05:31:59.948Z,100834.91
2022-10-22T05:34:28.913Z,100840.69
2022-10-22T05:36:58.038Z,100839.16
2022-10-22T05:39:27.189Z,100841.13
2022-10-22T05:41:56.197Z,100847.75
2022-10-22T05:44:25.220Z,100845.13
2022-10-22T05:46:55.966Z,100850.66
2022-10-22T05:49:24.961Z,100857.88
2022-10-22T05:51:53.920Z,100860.50
2022-10-22T05:54:23.163Z,100864.63
2022-10-22T05:56:52.130Z,100863.69
2022-10-22T05:59:21.135Z,100866.31
2022-10-22T06:01:50.192Z,100867.16
2022-10-22T06:04:20.489Z,100865.75
2022-10-22T06:06:51.906Z,100873.78
2022-10-22T06:09:25.898Z,100878.06
2022-10-22T06:11:55.153Z,100880.00
2022-10-22T06:14:24.754Z,100874.59
2022-10-22T06:16:54.242Z,100883.44
2022-10-22T06:19:26.741Z,100882.63
2022-10-22T06:21:56.102Z,100886.50
2022-10-22T06:24:25.401Z,100889.13
2022-10-22T06:26:54.655Z,100884.56
2022-10-22T06:29:23.842Z,100882.78
2022-10-22T06:31:52.878Z,100883.72
2022-10-22T06:34:23.214Z,100890.66
2022-10-22T06:36:52.129Z,100889.00
2022-10-22T06:39:21.082Z,100893.13
2022-10-22T06:42:00.032Z,100889.13
2022-10-22T06:44:32.255Z,100896.31
2022-10-22T06:47:02.186Z,100893.69
2022-10-22T06:49:32.543Z,100891.06
2022-10-22T06:52:01.618Z,100901.28
2022-10-22T06:54:30.615Z,100903.25
2022-10-22T06:56:59.597Z,100907.94
2022-10-22T06:59:28.573Z,100915.16
2022-10-22T07:01:57.855Z,100921.09
2022-10-22T07:04:26.921Z,100922.75
2022-10-22T07:06:57.911Z,100921.63
2022-10-22T07:09:26.947Z,100932.56
2022-10-22T07:11:55.878Z,100932.72
2022-10-22T07:14:25.110Z,100931.47
2022-10-22T07:16:54.101Z,100935.75
2022-10-22T07:19:23.018Z,100940.75
2022-10-22T07:21:52.146Z,100947.66
2022-10-22T07:24:22.416Z,100941.44
2022-10-22T07:26:51.474Z,100937.97
2022-10-22T07:29:20.535Z,100945.63
2022-10-22T07:31:49.545Z,100947.66
2022-10-22T07:36:52.357Z,100944.06
2022-10-22T07:39:22.716Z,100947.13
2022-10-22T07:41:51.662Z,100954.72
2022-10-22T07:44:20.586Z,100950.31
2022-10-22T07:46:49.541Z,100962.34
2022-10-22T07:49:18.701Z,100962.63
2022-10-22T07:51:47.662Z,100955.84
2022-10-22T07:54:16.775Z,100966.09
2022-10-22T07:56:47.076Z,100960.69
2022-10-22T07:59:16.061Z,100969.28
2022-10-22T08:01:46.838Z,100971.34
2022-10-22T08:04:17.020Z,100974.53
2022-10-22T08:06:47.382Z,100987.00
2022-10-22T08:09:16.986Z,100977.19
2022-10-22T08:11:47.543Z,100981.75
2022-10-22T08:14:17.081Z,100984.25
2022-10-22T08:16:46.345Z,100995.72
2022-10-22T08:19:18.748Z,100997.13
2022-10-22T08:21:48.451Z,100990.34
2022-10-22T08:24:18.995Z,100992.81
2022-10-22T08:26:49.253Z,100991.72
2022-10-22T08:29:18.260Z,100998.22
2022-10-22T08:31:47.195Z,100995.59
2022-10-22T08:34:16.135Z,100994.34
2022-10-22T08:36:45.070Z,100996.28
2022-10-22T08:39:14.110Z,101001.69
2022-10-22T08:41:55.350Z,101003.38
2022-10-22T08:44:51.982Z,101001.69
2022-10-22T08:47:42.485Z,101007.91
2022-10-22T08:50:13.317Z,101011.38
2022-10-22T08:52:43.572Z,101011.22
2022-10-22T08:55:15.795Z,101025.09
2022-10-22T08:57:53.159Z,101021.75
2022-10-22T09:00:26.331Z,101022.72
2022-10-22T09:03:07.859Z,101018.41
2022-10-22T09:05:49.245Z,101027.47
2022-10-22T09:08:20.374Z,101028.84
2022-10-22T09:10:52.066Z,101032.47
2022-10-22T09:13:24.039Z,101037.06
2022-10-22T09:15:56.496Z,101034.44
2022-10-22T09:18:37.431Z,101035.38
2022-10-22T09:21:21.346Z,101034.81
2022-10-22T09:23:59.851Z,101025.31
2022-10-22T09:26:28.832Z,101031.88
2022-10-22T09:29:02.024Z,101018.81
2022-10-22T09:31:33.684Z,101025.81
2022-10-22T09:34:07.366Z,101020.34
2022-10-22T09:36:38.810Z,101021.41
2022-10-22T09:39:23.764Z,101014.22
2022-10-22T09:41:52.874Z,101012.97
2022-10-22T09:44:23.333Z,101019.34
2022-10-22T09:46:52.489Z,101022.78
2022-10-22T09:49:24.612Z,101026.38
2022-10-22T09:51:56.693Z,101024.78
2022-10-22T09:54:27.881Z,101027.47
2022-10-22T09:56:59.039Z,101025.09
2022-10-22T09:59:34.266Z,101023.84
2022-10-22T10:02:20.366Z,101027.31
2022-10-22T10:04:58.604Z,101025.63
2022-10-22T10:07:31.487Z,101020.41
2022-10-22T10:10:00.705Z,101021.28
2022-10-22T10:12:40.009Z,101024.66
2022-10-22T10:15:21.302Z,101024.22
2022-10-22T10:17:59.632Z,101025.91
2022-10-22T10:20:36.695Z,101027.28
2022-10-22T10:23:15.124Z,101029.09
2022-10-22T10:25:49.544Z,101023.91
2022-10-22T10:28:31.238Z,101026.41
2022-10-22T10:31:10.947Z,101028.59
2022-10-22T10:33:48.001Z,101027.75
2022-10-22T10:36:26.128Z,101029.03
2022-10-22T10:39:00.972Z,101015.19
2022-10-22T10:41:39.792Z,101017.00
2022-10-22T10:44:40.421Z,101010.78
2022-10-22T10:47:29.590Z,101004.34
2022-10-22T10:50:15.027Z,101005.00
2022-10-22T10:52:48.957Z,101003.53
2022-10-22T10:55:24.406Z,101007.06
2022-10-22T10:58:05.766Z,101009.59
2022-10-22T11:00:41.945Z,101012.72
2022-10-22T11:03:55.831Z,101014.59
2022-10-22T11:06:28.248Z,101013.97
2022-10-22T11:09:00.853Z,101016.69
2022-10-22T11:11:37.421Z,101012.47
2022-10-22T11:14:14.454Z,101006.75
2022-10-22T11:16:47.759Z,101008.28
2022-10-22T11:19:46.055Z,101004.41
2022-10-22T11:22:26.586Z,101005.69
2022-10-22T11:25:01.683Z,101011.31
2022-10-22T11:27:37.433Z,101008.84
2022-10-22T11:30:13.604Z,101004.31
2022-10-22T11:32:45.397Z,100999.97
2022-10-22T11:35:21.155Z,100996.31
2022-10-22T11:37:57.129Z,101003.09
2022-10-22T11:40:36.870Z,100997.47
2022-10-22T11:43:07.612Z,100995.09
2022-10-22T11:45:38.069Z,100993.53
2022-10-22T11:48:17.025Z,100989.75
2022-10-22T11:50:53.209Z,100992.75
2022-10-22T11:53:31.642Z,100998.97
2022-10-22T11:56:22.118Z,100999.59
2022-10-22T11:58:53.959Z,100996.69
2022-10-22T12:01:30.327Z,101002.03
2022-10-22T12:04:18.973Z,100998.38
2022-10-22T12:07:06.219Z,100991.78
2022-10-22T12:09:45.794Z,100995.19
2022-10-22T12:12:24.177Z,100989.47
2022-10-22T12:14:55.845Z,100992.75
2022-10-22T12:17:26.374Z,100992.00
2022-10-22T12:20:02.767Z,100983.81
2022-10-22T12:22:37.080Z,100996.56
2022-10-22T12:25:19.874Z,101000.16
2022-10-22T12:27:53.338Z,100998.44
2022-10-22T12:30:24.527Z,100994.88
2022-10-22T12:32:54.836Z,101010.00
2022-10-22T12:35:27.146Z,100994.50
2022-10-22T12:37:58.151Z,101007.78
2022-10-22T12:40:30.148Z,101009.28
2022-10-22T12:43:01.170Z,101009.31
2022-10-22T12:45:32.737Z,101015.69
2022-10-22T12:48:04.034Z,101024.75
2022-10-22T12:50:38.125Z,101021.81
2022-10-22T12:53:07.941Z,101020.16
2022-10-22T12:55:39.258Z,101032.84
2022-10-22T12:58:09.044Z,101026.28
2022-10-22T13:00:38.215Z,101023.66
2022-10-22T13:03:08.296Z,101017.72
2022-10-22T13:05:39.792Z,101023.13
2022-10-22T13:08:11.959Z,101026.88
2022-10-22T13:10:50.082Z,101037.25
2022-10-22T13:13:42.345Z,101028.47
2022-10-22T13:16:16.667Z,101037.53
2022-10-22T13:18:46.788Z,101036.16
2022-10-22T13:21:30.877Z,101032.84
2022-10-22T13:24:01.629Z,101024.94
2022-10-22T13:26:37.256Z,101035.78
2022-10-22T13:29:14.611Z,101030.00
2022-10-22T13:31:49.238Z,101033.03
2022-10-22T13:34:20.870Z,101039.03
2022-10-22T13:36:50.643Z,101043.88
2022-10-22T13:39:20.853Z,101031.06
2022-10-22T13:41:51.683Z,101034.03
2022-10-22T13:44:20.998Z,101025.41
2022-10-22T13:46:50.425Z,101025.50
2022-10-22T13:49:23.265Z,101030.59
2022-10-22T13:51:52.891Z,101021.88
2022-10-22T13:54:25.681Z,101026.97
2022-10-22T13:56:55.984Z,101023.47
2022-10-22T13:59:24.899Z,101023.47
2022-10-22T14:01:55.746Z,101021.50
2022-10-22T14:04:24.851Z,101022.34
2022-10-22T14:06:53.855Z,101031.59
2022-10-22T14:09:22.947Z,101028.38
2022-10-22T14:11:51.970Z,101038.44
2022-10-22T14:14:22.208Z,101037.63
2022-10-22T14:16:51.261Z,101033.00
2022-10-22T14:19:20.355Z,101027.06
2022-10-22T14:21:49.661Z,101037.72
2022-10-22T14:24:18.634Z,101038.34
2022-10-22T14:26:47.550Z,101033.56
2022-10-22T14:29:16.858Z,101036.06
2022-10-22T14:31:47.119Z,101034.59
2022-10-22T14:34:17.412Z,101040.38
2022-10-22T14:36:46.360Z,101036.41
2022-10-22T14:39:15.350Z,101032.41
2022-10-22T14:41:44.667Z,101035.88
2022-10-22T14:44:14.868Z,101037.53
2022-10-22T14:46:44.421Z,101040.16
2022-10-22T14:49:14.924Z,101042.16
2022-10-22T14:51:43.924Z,101035.53
2022-10-22T14:54:12.832Z,101036.84
2022-10-22T14:56:41.960Z,101026.06
2022-10-22T14:59:11.235Z,101033.38
2022-10-22T15:01:41.973Z,101032.03
2022-10-22T15:04:11.395Z,101037.84
2022-10-22T15:06:41.680Z,101041.00
2022-10-22T15:09:10.709Z,101034.72
2022-10-22T15:11:39.752Z,101047.47
2022-10-22T15:14:09.174Z,101050.13
2022-10-22T15:16:38.088Z,101057.56
2022-10-22T15:19:07.237Z,101065.69
2022-10-22T15:21:36.215Z,101059.88
2022-10-22T15:24:07.336Z,101065.84
2022-10-22T15:26:36.355Z,101070.03
2022-10-22T15:29:05.831Z,101073.66
2022-10-22T15:31:47.809Z,101076.81
2022-10-22T15:34:23.314Z,101078.63
2022-10-22T15:36:54.502Z,101078.81
2022-10-22T15:39:25.292Z,101081.28
2022-10-22T15:41:54.993Z,101090.22
2022-10-22T15:44:26.013Z,101078.44
2022-10-22T15:46:55.788Z,101080.44
2022-10-22T15:49:25.958Z,101086.88
2022-10-22T15:51:55.335Z,101092.69
2022-10-22T15:54:28.678Z,101093.28
2022-10-22T15:56:57.908Z,101099.88
2022-10-22T15:59:27.003Z,101101.69
2022-10-22T16:01:55.950Z,101109.28
2022-10-22T16:04:24.867Z,101110.75
2022-10-22T16:06:54.736Z,101114.22
2022-10-22T16:09:26.953Z,101112.19
2022-10-22T16:11:56.820Z,101118.00
2022-10-22T16:14:25.825Z,101120.00
2022-10-22T16:16:57.027Z,101119.84
2022-10-22T16:19:26.628Z,101121.47
2022-10-22T16:21:56.880Z,101121.66
2022-10-22T16:24:27.204Z,101132.06
2022-10-22T16:26:56.140Z,101132.56
2022-10-22T16:29:25.060Z,101134.16
2022-10-22T16:31:53.990Z,101143.47
2022-10-22T16:34:22.929Z,101133.34
2022-10-22T16:36:53.553Z,101131.81
2022-10-22T16:39:22.669Z,101136.63
2022-10-22T16:41:52.985Z,101148.84
2022-10-22T16:44:21.959Z,101146.66
2022-10-22T16:46:50.910Z,101149.16
2022-10-22T16:49:19.837Z,101159.69
2022-10-22T16:51:48.794Z,101151.00
2022-10-22T16:54:17.830Z,101155.66
2022-10-22T16:56:46.969Z,101164.41
2022-10-22T16:59:17.400Z,101160.75
2022-10-22T17:01:46.400Z,101168.69
2022-10-22T17:04:17.199Z,101174.38
2022-10-22T17:06:46.136Z,101172.75
2022-10-22T17:09:15.309Z,101166.94
2022-10-22T17:11:45.010Z,101178.25
2022-10-22T17:14:14.086Z,101177.16
2022-10-22T17:16:44.831Z,101178.13
2022-10-22T17:19:15.822Z,101187.88
2022-10-22T17:21:45.080Z,101187.31
2022-10-22T17:24:14.300Z,101196.53
2022-10-22T17:26:44.742Z,101205.00
2022-10-22T17:29:14.487Z,101201.38
2022-10-22T17:31:44.796Z,101206.56
2022-10-22T17:34:17.587Z,101204.16
2022-10-22T17:36:46.762Z,101204.59
2022-10-22T17:39:19.405Z,101215.78
2022-10-22T17:41:48.354Z,101218.69
2022-10-22T17:44:17.899Z,101215.50
2022-10-22T17:46:49.567Z,101208.72
2022-10-22T17:49:20.722Z,101208.94
2022-10-22T17:51:49.861Z,101221.44
2022-10-22T17:54:19.134Z,101231.88
2022-10-22T17:56:48.057Z,101227.88
2022-10-22T17:59:19.037Z,101231.66
2022-10-22T18:01:49.390Z,101229.72
2022-10-22T18:04:20.538Z,101236.25
2022-10-22T18:06:49.877Z,101235.41
2022-10-22T18:09:19.953Z,101234.31
2022-10-22T18:11:49.619Z,101235.72
2022-10-22T18:14:19.706Z,101231.16
2022-10-22T18:16:50.459Z,101229.50
2022-10-22T18:19:22.363Z,101239.91
2022-10-22T18:21:51.352Z,101234.78
2022-10-22T18:24:20.277Z,101242.72
2022-10-22T18:26:49.511Z,101240.50
2022-10-22T18:29:20.684Z,101248.28
2022-10-22T18:31:52.391Z,101245.63
2022-10-22T18:34:23.807Z,101245.34
2022-10-22T18:36:53.157Z,101249.50
2022-10-22T18:39:22.118Z,101250.59
2022-10-22T18:41:51.259Z,101260.19
2022-10-22T18:44:20.185Z,101257.41
2022-10-22T18:46:50.455Z,101256.16
2022-10-22T18:49:20.875Z,101254.25
2022-10-22T18:51:52.786Z,101254.00
2022-10-22T18:54:23.618Z,101260.38
2022-10-22T18:56:53.410Z,101255.78
2022-10-22T18:59:24.739Z,101251.78
2022-10-22T19:01:57.503Z,101258.56
2022-10-22T19:04:30.862Z,101263.19
2022-10-22T19:06:59.889Z,101272.34
2022-10-22T19:09:28.851Z,101271.19
2022-10-22T19:11:58.328Z,101269.69
2022-10-22T19:14:27.528Z,101265.94
2022-10-22T19:16:57.788Z,101270.81
2022-10-22T19:19:26.968Z,101276.75
2022-10-22T19:21:59.387Z,101273.53
2022-10-22T19:24:29.110Z,101276.06
2022-10-22T19:26:58.106Z,101278.13
2022-10-22T19:29:27.109Z,101287.94
2022-10-22T19:31:57.484Z,101285.31
2022-10-22T19:34:26.540Z,101289.63
2022-10-22T19:36:55.464Z,101288.09
2022-10-22T19:39:24.426Z,101289.34
2022-10-22T19:41:53.437Z,101292.88
2022-10-22T19:44:22.353Z,101297.81
2022-10-22T19:46:51.279Z,101297.44
2022-10-22T19:49:22.975Z,101299.25
2022-10-22T19:51:52.211Z,101303.56
2022-10-22T19:54:21.291Z,101309.09
2022-10-22T19:56:51.100Z,101301.88
2022-10-22T19:59:22.645Z,101303.50
2022-10-22T20:01:51.713Z,101311.06
2022-10-22T20:04:25.020Z,101319.41
2022-10-22T20:06:56.172Z,101314.38
2022-10-22T20:09:25.381Z,101318.63
2022-10-22T20:11:54.544Z,101320.19
2022-10-22T20:14:23.458Z,101323.22
2022-10-22T20:16:52.519Z,101324.53
2022-10-22T20:19:25.991Z,101325.38
2022-10-22T20:21:55.082Z,101331.34
2022-10-22T20:24:24.252Z,101336.47
2022-10-22T20:26:53.263Z,101334.97
2022-10-22T20:29:22.357Z,101338.28
2022-10-22T20:31:51.332Z,101335.91
2022-10-22T20:34:20.370Z,101349.66
2022-10-22T20:36:50.641Z,101342.97
2022-10-22T20:39:20.042Z,101354.34
2022-10-22T20:41:51.605Z,101350.75
2022-10-22T20:44:20.710Z,101352.06
2022-10-22T20:46:50.153Z,101363.00
2022-10-22T20:49:20.621Z,101361.63
2022-10-22T20:51:51.019Z,101357.16
2022-10-22T20:54:20.426Z,101365.50
2022-10-22T20:56:49.377Z,101360.22
2022-10-22T20:59:18.453Z,101366.75
2022-10-22T21:01:49.677Z,101365.53
2022-10-22T21:04:19.928Z,101366.03
2022-10-22T21:06:53.606Z,101370.91
2022-10-22T21:09:22.948Z,101364.34
2022-10-22T21:14:28.473Z,101361.16
2022-10-22T21:16:57.476Z,101360.25
2022-10-22T21:19:26.998Z,101363.31
2022-10-22T21:21:57.541Z,101370.88
2022-10-22T21:24:26.695Z,101364.19
2022-10-22T21:26:56.246Z,101361.13
2022-10-22T21:29:25.200Z,101372.16
2022-10-22T21:31:54.555Z,101366.88
2022-10-22T21:34:23.534Z,101378.16
2022-10-22T21:36:52.807Z,101377.63
2022-10-22T21:39:23.172Z,101370.94
2022-10-22T21:41:52.715Z,101381.03
2022-10-22T21:44:21.643Z,101370.81
2022-10-22T21:46:50.670Z,101374.84
2022-10-22T21:49:19.998Z,101369.06
2022-10-22T21:51:49.280Z,101374.91
2022-10-22T21:54:18.412Z,101378.06
2022-10-22T21:56:48.968Z,101375.53
2022-10-22T21:59:17.895Z,101380.72
2022-10-22T22:01:46.994Z,101371.97
2022-10-22T22:04:16.016Z,101382.09
2022-10-22T22:06:45.014Z,101382.81
2022-10-22T22:09:14.179Z,101376.97
2022-10-22T22:11:43.408Z,101378.53
2022-10-22T22:14:14.874Z,101378.06
2022-10-22T22:16:44.109Z,101383.59
2022-10-22T22:19:13.472Z,101369.63
2022-10-22T22:21:45.266Z,101374.19
2022-10-22T22:24:15.189Z,101382.63
2022-10-22T22:26:44.211Z,101380.06
2022-10-22T22:29:14.670Z,101379.81
2022-10-22T22:31:43.695Z,101379.84
2022-10-22T22:34:15.410Z,101379.94
2022-10-22T22:36:46.389Z,101388.69
2022-10-22T22:39:17.259Z,101380.66
2022-10-22T22:41:47.329Z,101386.25
2022-10-22T22:44:17.823Z,101378.97
2022-10-22T22:46:46.822Z,101381.38
2022-10-22T22:49:16.126Z,101387.72
2022-10-22T22:51:45.410Z,101385.19
2022-10-22T22:54:14.399Z,101386.53
2022-10-22T22:56:43.392Z,101383.41
2022-10-22T22:59:12.926Z,101379.13
2022-10-22T23:01:45.292Z,101379.38
2022-10-22T23:04:19.041Z,101383.66
2022-10-22T23:06:48.086Z,101382.84
2022-10-22T23:09:17.983Z,101385.13
2022-10-22T23:11:48.185Z,101382.50
2022-10-22T23:14:19.191Z,101374.75
2022-10-22T23:16:51.858Z,101384.88
2022-10-22T23:19:22.204Z,101376.84
2022-10-22T23:21:52.771Z,101377.25
2022-10-22T23:24:24.037Z,101381.88
2022-10-22T23:26:54.508Z,101371.03
2022-10-22T23:29:26.039Z,101370.44
2022-10-22T23:31:59.542Z,101386.09
2022-10-22T23:34:29.869Z,101379.88
2022-10-22T23:36:59.224Z,101385.63
2022-10-22T23:39:29.750Z,101377.81
2022-10-22T23:41:59.102Z,101379.88
2022-10-22T23:44:28.250Z,101385.84
2022-10-22T23:46:58.519Z,101385.97
2022-10-22T23:49:27.544Z,101391.44
2022-10-22T23:51:56.433Z,101389.69
2022-10-22T23:54:25.419Z,101389.44
2022-10-22T23:56:54.370Z,101392.53
2022-10-22T23:59:23.284Z,101392.06
